»·PEaware :: GTI105 KSAN-KPHX

GTI105 :: KSAN-KPHX

FLIGHT INFORMATION

Flight Status: Arrived
Operator:
Atlas Air
More flights by this operator :: More flights under this callsign
Pilot: Mike C. (16705)
Aircraft: BOEING 747-400 (WINGLETS)
(B744)
More flights by this aircraft type
Origin: KSAN San Diego Intl-Lindbergh
United States
Destination: KPHX Phoenix Sky Harbor Intl
United States
More flights between these airports :: More routes between these airports
Route: ZZOOO2 IPL J18 BZA HOGGZ HYDRR1
File this flight plan on PilotEdge
Remarks: PBN / A1B1D1O1S2 DOF / 180516 REG / N661US EET / KZAB0022 OPR / GTI PER / D RMK / TCAS SIMBRIEF
Altitude:
(Current/Filed)
39,000ft
Speed:
(Current/Filed)
460kts
Departed: 15-May-18 08:43 PM
Arrived: 15-May-18 09:38 PM
Distance/Time
Traveled:
263nm/0:55
Distance/Time
To Go:
Arrived

Flight Plot

Page will automatically refresh every two minutes.

Flight plan parsing failed; only flown route is shown


Map Options




Map Legend


Flown Route
Filed Route
Departure Airport
Arrival Airport
Navaid (VOR, NDB)
Fix

Horizontal Profiles

Position Reports

Time Latitude Longitude Heading Altitude Ground
Speed
15-May-18 20:06 32.735876 -117.185528 120 28ft 0kts
15-May-18 20:07 32.735876 -117.185528 120 28ft 0kts
15-May-18 20:08 32.735876 -117.185528 120 28ft 0kts
15-May-18 20:09 32.735876 -117.185528 120 28ft 0kts
15-May-18 20:10 32.735876 -117.185528 120 28ft 0kts
15-May-18 20:11 32.735876 -117.185528 120 28ft 0kts
15-May-18 20:12 32.735876 -117.185528 120 28ft 0kts
15-May-18 20:13 32.735876 -117.185528 120 28ft 0kts
15-May-18 20:14 32.735876 -117.185528 120 28ft 0kts
15-May-18 20:15 32.735876 -117.185528 120 28ft 0kts
15-May-18 20:16 32.735876 -117.185528 120 28ft 0kts
15-May-18 20:17 32.735876 -117.185528 120 28ft 0kts
15-May-18 20:18 32.735876 -117.185528 120 28ft 0kts
15-May-18 20:19 32.735876 -117.185528 120 28ft 0kts
15-May-18 20:20 32.735876 -117.185528 120 28ft 0kts
15-May-18 20:21 32.735876 -117.185528 120 28ft 0kts
15-May-18 20:22 32.735876 -117.185528 120 28ft 0kts
15-May-18 20:23 32.735876 -117.185528 120 28ft 0kts
15-May-18 20:24 32.735876 -117.185528 120 28ft 0kts
15-May-18 20:25 32.735876 -117.185528 120 28ft 0kts
15-May-18 20:26 32.735876 -117.185528 120 28ft 0kts
15-May-18 20:27 32.735876 -117.185528 120 28ft 0kts
15-May-18 20:28 32.735876 -117.185528 119 28ft 0kts
15-May-18 20:29 32.735875 -117.185527 119 28ft 0kts
15-May-18 20:30 32.735875 -117.185526 119 28ft 0kts
15-May-18 20:31 32.735874 -117.185525 118 28ft 0kts
15-May-18 20:32 32.735874 -117.185524 118 28ft 0kts
15-May-18 20:33 32.735373 -117.184732 142 28ft 6kts
15-May-18 20:34 32.734826 -117.184245 144 28ft 0kts
15-May-18 20:35 32.734826 -117.184245 144 28ft 0kts
15-May-18 20:36 32.734826 -117.184245 144 28ft 0kts
15-May-18 20:37 32.733466 -117.183913 151 28ft 4kts
15-May-18 20:38 32.732725 -117.181673 104 28ft 11kts
15-May-18 20:39 32.732035 -117.178526 105 28ft 8kts
15-May-18 20:40 32.731415 -117.176076 113 28ft 6kts
15-May-18 20:41 32.731195 -117.175681 132 28ft 0kts
15-May-18 20:42 32.731188 -117.175673 133 28ft 2kts
15-May-18 20:43 32.731123 -117.179690 288 28ft 93kts
15-May-18 20:44 32.745141 -117.236246 283 4603ft 204kts
15-May-18 20:45 32.746638 -117.311918 231 7625ft 266kts
15-May-18 20:46 32.671964 -117.318218 162 11944ft 323kts
15-May-18 20:47 32.621858 -117.218942 95 15921ft 403kts
15-May-18 20:48 32.616952 -117.080501 97 20112ft 435kts
15-May-18 20:49 32.604450 -116.933775 92 23092ft 460kts
15-May-18 20:50 32.628750 -116.779041 79 26412ft 492kts
15-May-18 20:51 32.646038 -116.614391 85 29220ft 516kts
15-May-18 20:52 32.662184 -116.441466 85 31480ft 539kts
15-May-18 20:53 32.679724 -116.263659 86 33956ft 544kts
15-May-18 20:54 32.696288 -116.084934 86 36144ft 546kts
15-May-18 20:55 32.712810 -115.905444 86 37942ft 551kts
15-May-18 20:56 32.729730 -115.724044 86 38887ft 553kts
15-May-18 20:57 32.741585 -115.590679 86 38873ft 552kts
15-May-18 20:58 32.751889 -115.408783 92 38872ft 549kts
15-May-18 20:59 32.755769 -115.227627 92 38885ft 549kts
15-May-18 21:00 32.759538 -115.046110 92 38885ft 550kts
15-May-18 21:01 32.763512 -114.864034 92 38885ft 550kts
15-May-18 21:02 32.766688 -114.684698 92 37386ft 535kts
15-May-18 21:03 32.769356 -114.511516 92 35392ft 515kts
15-May-18 21:04 32.771935 -114.343866 92 33310ft 498kts
15-May-18 21:05 32.773700 -114.182362 91 31313ft 480kts
15-May-18 21:06 32.778630 -114.027011 84 29370ft 463kts
15-May-18 21:07 32.796107 -113.877724 83 27432ft 446kts
15-May-18 21:08 32.811623 -113.734150 82 25513ft 430kts
15-May-18 21:09 32.868885 -113.616735 47 24064ft 401kts
15-May-18 21:10 32.942585 -113.519020 46 22887ft 392kts
15-May-18 21:11 33.013846 -113.422678 46 21749ft 384kts
15-May-18 21:12 33.084045 -113.328059 46 20726ft 377kts
15-May-18 21:13 33.152601 -113.235301 46 19632ft 369kts
15-May-18 21:14 33.219600 -113.144173 46 18560ft 362kts
15-May-18 21:15 33.272430 -113.045440 78 17495ft 355kts
15-May-18 21:16 33.278156 -112.929022 90 16441ft 348kts
15-May-18 21:17 33.280921 -112.814524 87 15427ft 342kts
15-May-18 21:18 33.291734 -112.702791 84 14433ft 336kts
15-May-18 21:19 33.302254 -112.592611 85 13452ft 330kts
15-May-18 21:20 33.312110 -112.484582 85 12491ft 324kts
15-May-18 21:21 33.321778 -112.378109 85 11544ft 318kts
15-May-18 21:22 33.331339 -112.274933 85 10849ft 296kts
15-May-18 21:23 33.339721 -112.181363 85 9769ft 277kts
15-May-18 21:24 33.347539 -112.092192 87 8967ft 257kts
15-May-18 21:25 33.346685 -112.008126 92 7803ft 250kts
15-May-18 21:26 33.345679 -111.924738 91 6856ft 257kts
15-May-18 21:27 33.346542 -111.840033 91 5575ft 244kts
15-May-18 21:28 33.347369 -111.765195 91 5025ft 202kts
15-May-18 21:29 33.348126 -111.698885 91 5026ft 198kts
15-May-18 21:30 33.382196 -111.663261 341 5030ft 196kts
15-May-18 21:31 33.420884 -111.705353 307 4554ft 186kts
15-May-18 21:32 33.429299 -111.763090 265 4144ft 177kts
15-May-18 21:33 33.428758 -111.822023 267 4021ft 176kts
15-May-18 21:34 33.428772 -111.876497 266 3130ft 139kts
15-May-18 21:35 33.428798 -111.921886 267 2423ft 133kts
15-May-18 21:36 33.429202 -111.966593 267 1704ft 137kts
15-May-18 21:37 33.428817 -112.010645 270 1149ft 85kts
15-May-18 21:38 33.428447 -112.021456 235 1148ft 13kts
15-May-18 21:39 33.428318 -112.021607 207 1148ft 0kts
15-May-18 21:40 33.427230 -112.018975 166 1148ft 12kts
15-May-18 21:41 33.425562 -112.017031 93 1148ft 0kts
15-May-18 21:42 33.425562 -112.017031 93 1148ft 0kts
15-May-18 21:43 33.425562 -112.017031 93 1148ft 0kts

Navigation Log

Ident Type
Flight plan parsing failed, navigation log unavailable